createdAt,value
2022-09-06T00:01:23.559Z,97714.53
2022-09-06T00:03:51.007Z,97646.66
2022-09-06T00:06:19.683Z,97716.78
2022-09-06T00:08:47.929Z,97705.53
2022-09-06T00:11:15.816Z,97707.16
2022-09-06T00:13:42.669Z,97719.84
2022-09-06T00:16:13.465Z,97682.47
2022-09-06T00:18:41.056Z,97642.53
2022-09-06T00:21:35.668Z,97714.16
2022-09-06T00:24:03.927Z,97714.94
2022-09-06T00:26:30.615Z,97645.53
2022-09-06T00:28:57.651Z,97722.09
2022-09-06T00:31:26.622Z,97714.59
2022-09-06T00:33:53.883Z,97666.78
2022-09-06T00:36:21.375Z,97706.22
2022-09-06T00:38:48.028Z,97701.22
2022-09-06T00:41:16.238Z,97706.06
2022-09-06T00:43:43.208Z,97711.22
2022-09-06T00:46:18.561Z,97604.00
2022-09-06T00:48:48.844Z,97678.19
2022-09-06T00:51:16.984Z,97704.25
2022-09-06T00:53:44.114Z,97702.47
2022-09-06T00:56:11.195Z,97629.06
2022-09-06T00:58:38.631Z,97699.38
2022-09-06T01:01:06.865Z,97678.56
2022-09-06T01:03:34.476Z,97559.84
2022-09-06T01:06:26.450Z,97699.38
2022-09-06T01:08:53.023Z,97708.13
2022-09-06T01:11:41.580Z,97663.53
2022-09-06T01:14:15.620Z,97696.97
2022-09-06T01:16:51.240Z,97703.19
2022-09-06T01:19:33.210Z,97694.91
2022-09-06T01:22:14.728Z,97696.81
2022-09-06T01:25:11.638Z,97383.09
2022-09-06T01:27:44.330Z,97700.31
2022-09-06T01:30:13.206Z,97661.50
2022-09-06T01:32:52.076Z,97693.47
2022-09-06T01:35:46.448Z,97693.47
2022-09-06T01:38:14.715Z,97699.84
2022-09-06T01:40:41.532Z,97693.47
2022-09-06T01:43:13.124Z,97688.56
2022-09-06T01:46:24.339Z,97685.78
2022-09-06T01:48:54.037Z,97681.28
2022-09-06T01:51:37.200Z,97682.84
2022-09-06T01:54:26.648Z,97495.78
2022-09-06T01:56:53.310Z,97673.03
2022-09-06T01:59:32.108Z,97666.91
2022-09-06T02:02:14.703Z,97665.78
2022-09-06T02:04:58.390Z,97670.13
2022-09-06T02:07:27.782Z,97668.94
2022-09-06T02:10:00.576Z,97601.66
2022-09-06T02:12:30.311Z,97627.31
2022-09-06T02:15:08.927Z,97645.09
2022-09-06T02:17:43.997Z,97662.53
2022-09-06T02:20:17.989Z,97555.84
2022-09-06T02:22:47.484Z,97643.16
2022-09-06T02:25:21.919Z,97658.72
2022-09-06T02:27:48.588Z,97641.34
2022-09-06T02:30:15.387Z,97658.47
2022-09-06T02:33:00.134Z,97627.00
2022-09-06T02:35:26.952Z,97664.75
2022-09-06T02:37:54.100Z,97645.41
2022-09-06T02:40:20.926Z,97653.13
2022-09-06T02:42:47.579Z,97606.97
2022-09-06T02:45:14.281Z,97330.00
2022-09-06T02:47:40.992Z,97680.63
2022-09-06T02:50:08.330Z,97664.59
2022-09-06T02:52:34.920Z,97593.19
2022-09-06T02:55:01.652Z,97663.84
2022-09-06T02:57:28.255Z,97535.47
2022-09-06T02:59:54.914Z,97593.06
2022-09-06T03:02:21.590Z,97630.03
2022-09-06T03:04:48.373Z,97639.50
2022-09-06T03:07:15.039Z,97654.31
2022-09-06T03:09:41.808Z,97670.47
2022-09-06T03:12:08.602Z,97667.50
2022-09-06T03:14:36.271Z,97661.91
2022-09-06T03:17:03.885Z,97644.75
2022-09-06T03:19:30.638Z,97663.66
2022-09-06T03:21:57.311Z,97668.63
2022-09-06T03:24:24.092Z,97641.75
2022-09-06T03:26:50.938Z,97586.25
2022-09-06T03:29:17.676Z,97665.63
2022-09-06T03:31:44.484Z,97635.91
2022-09-06T03:34:11.420Z,97658.31
2022-09-06T03:36:38.355Z,97659.94
2022-09-06T03:39:04.981Z,97658.31
2022-09-06T03:41:31.603Z,97663.03
2022-09-06T03:43:58.287Z,97593.84
2022-09-06T03:46:25.049Z,97664.94
2022-09-06T03:48:51.710Z,97666.97
2022-09-06T03:51:18.511Z,97670.09
2022-09-06T03:53:45.311Z,97667.41
2022-09-06T03:56:12.137Z,97625.94
2022-09-06T03:58:38.799Z,97673.59
2022-09-06T04:01:08.307Z,97643.97
2022-09-06T04:03:36.057Z,97680.94
2022-09-06T04:06:03.737Z,97632.16
2022-09-06T04:08:30.916Z,97683.34
2022-09-06T04:10:58.663Z,97679.72
2022-09-06T04:13:26.761Z,97651.69
2022-09-06T04:15:53.671Z,97640.03
2022-09-06T04:18:21.444Z,97634.06
2022-09-06T04:20:50.044Z,97686.88
2022-09-06T04:23:17.379Z,97690.38
2022-09-06T04:25:48.560Z,97684.25
2022-09-06T04:28:15.985Z,97681.59
2022-09-06T04:30:42.644Z,97675.00
2022-09-06T04:33:09.368Z,97678.28
2022-09-06T04:35:36.409Z,97676.63
2022-09-06T04:38:05.345Z,97680.22
2022-09-06T04:40:32.011Z,97647.88
2022-09-06T04:42:58.649Z,97652.34
2022-09-06T04:45:25.425Z,97575.19
2022-09-06T04:47:52.100Z,97639.19
2022-09-06T04:50:18.879Z,97553.72
2022-09-06T04:52:45.553Z,97656.31
2022-09-06T04:55:12.214Z,97667.75
2022-09-06T04:57:42.245Z,97602.03
2022-09-06T05:00:12.177Z,97663.00
2022-09-06T05:02:38.975Z,97676.66
2022-09-06T05:05:06.157Z,97665.59
2022-09-06T05:07:32.780Z,97615.16
2022-09-06T05:09:59.443Z,97660.09
2022-09-06T05:12:26.089Z,97673.00
2022-09-06T05:14:52.737Z,97649.03
2022-09-06T05:17:19.357Z,97668.25
2022-09-06T05:19:46.206Z,97670.94
2022-09-06T05:22:12.831Z,97580.31
2022-09-06T05:24:39.492Z,97667.59
2022-09-06T05:27:07.546Z,97677.69
2022-09-06T05:29:34.260Z,97589.56
2022-09-06T05:32:01.160Z,97645.25
2022-09-06T05:34:27.834Z,97675.41
2022-09-06T05:36:54.559Z,97667.44
2022-09-06T05:39:21.986Z,97625.81
2022-09-06T05:41:48.599Z,97667.94
2022-09-06T05:44:15.319Z,97667.56
2022-09-06T05:46:43.624Z,97652.47
2022-09-06T05:49:10.682Z,97596.03
2022-09-06T05:51:37.292Z,97662.72
2022-09-06T05:54:04.290Z,97652.84
2022-09-06T05:56:30.958Z,97631.25
2022-09-06T05:58:57.601Z,97614.09
2022-09-06T06:01:29.872Z,97656.16
2022-09-06T06:04:02.332Z,97642.88
2022-09-06T06:06:31.500Z,97620.41
2022-09-06T06:08:58.906Z,97645.88
2022-09-06T06:11:27.314Z,97626.56
2022-09-06T06:13:54.682Z,97633.69
2022-09-06T06:16:22.628Z,97627.75
2022-09-06T06:18:52.257Z,97628.34
2022-09-06T06:21:24.343Z,97641.16
2022-09-06T06:23:53.923Z,97625.38
2022-09-06T06:26:20.577Z,97624.44
2022-09-06T06:28:47.380Z,97523.88
2022-09-06T06:31:14.678Z,97625.22
2022-09-06T06:33:41.999Z,97554.22
2022-09-06T06:36:21.818Z,97571.84
2022-09-06T06:38:49.884Z,97617.34
2022-09-06T06:41:18.726Z,97637.47
2022-09-06T06:43:45.666Z,97344.31
2022-09-06T06:46:18.537Z,97565.25
2022-09-06T06:48:46.448Z,97511.28
2022-09-06T06:51:15.623Z,97626.75
2022-09-06T06:53:43.638Z,97560.38
2022-09-06T06:56:27.563Z,97628.91
2022-09-06T06:58:57.730Z,97621.53
2022-09-06T07:01:26.372Z,97629.44
2022-09-06T07:03:54.423Z,97603.44
2022-09-06T07:06:22.462Z,97603.19
2022-09-06T07:09:08.724Z,97624.53
2022-09-06T07:11:35.345Z,97626.69
2022-09-06T07:14:01.934Z,97630.53
2022-09-06T07:16:30.108Z,97592.06
2022-09-06T07:18:56.789Z,97568.34
2022-09-06T07:21:42.183Z,97623.19
2022-09-06T07:24:09.740Z,97622.72
2022-09-06T07:26:38.515Z,97616.47
2022-09-06T07:29:06.885Z,97634.09
2022-09-06T07:34:22.150Z,97551.44
2022-09-06T07:36:51.730Z,97627.22
2022-09-06T07:39:18.387Z,97619.94
2022-09-06T07:41:45.019Z,97498.44
2022-09-06T07:44:11.736Z,97623.53
2022-09-06T07:46:38.496Z,97533.94
2022-09-06T07:49:06.086Z,97612.16
2022-09-06T07:51:33.273Z,97560.75
2022-09-06T07:54:26.410Z,97580.06
2022-09-06T07:56:46.637Z,97550.53
2022-09-06T07:59:13.358Z,97568.50
2022-09-06T08:01:40.953Z,97543.19
2022-09-06T08:04:09.547Z,97605.91
2022-09-06T08:09:25.394Z,97583.78
2022-09-06T08:11:52.946Z,97603.56
2022-09-06T08:14:20.444Z,97521.03
2022-09-06T08:16:47.477Z,97586.38
2022-09-06T08:19:14.554Z,97602.22
2022-09-06T08:21:41.784Z,97317.16
2022-09-06T08:24:12.282Z,97595.56
2022-09-06T08:26:48.546Z,97562.47
2022-09-06T08:29:15.268Z,97298.66
2022-09-06T08:31:45.243Z,97478.53
2022-09-06T08:34:12.855Z,97575.78
2022-09-06T08:36:40.456Z,97575.34
2022-09-06T08:39:11.984Z,97550.53
2022-09-06T08:42:08.388Z,97567.09
2022-09-06T08:44:57.229Z,97564.13
2022-09-06T08:47:25.056Z,97556.09
2022-09-06T08:49:57.995Z,97563.06
2022-09-06T08:52:27.361Z,97556.78
2022-09-06T08:55:15.241Z,97554.00
2022-09-06T08:57:44.705Z,97546.47
2022-09-06T09:00:13.732Z,97517.69
2022-09-06T09:02:51.826Z,97542.69
2022-09-06T09:05:31.500Z,97545.88
2022-09-06T09:08:07.325Z,97549.78
2022-09-06T09:10:48.600Z,97524.28
2022-09-06T09:13:24.226Z,97539.34
2022-09-06T09:15:50.947Z,97535.09
2022-09-06T09:18:24.366Z,97529.97
2022-09-06T09:20:51.147Z,97521.81
2022-09-06T09:23:17.811Z,97502.09
2022-09-06T09:25:46.657Z,97525.78
2022-09-06T09:28:18.963Z,97507.66
2022-09-06T09:30:52.389Z,97513.38
2022-09-06T09:33:21.615Z,97499.41
2022-09-06T09:35:48.816Z,97492.50
2022-09-06T09:38:26.391Z,97446.91
2022-09-06T09:40:53.170Z,97502.16
2022-09-06T09:43:36.151Z,97504.19
2022-09-06T09:46:08.956Z,97492.28
2022-09-06T09:48:36.016Z,97486.34
2022-09-06T09:51:27.044Z,97485.44
2022-09-06T09:53:59.624Z,97488.44
2022-09-06T09:56:54.570Z,97479.88
2022-09-06T09:59:26.321Z,97483.53
2022-09-06T10:02:01.684Z,97469.09
2022-09-06T10:04:45.680Z,97472.66
2022-09-06T10:07:21.728Z,97471.75
2022-09-06T10:10:01.292Z,97447.09
2022-09-06T10:12:32.442Z,97467.28
2022-09-06T10:15:02.451Z,97411.19
2022-09-06T10:17:38.657Z,97426.38
2022-09-06T10:20:10.763Z,97119.66
2022-09-06T10:22:40.404Z,97453.13
2022-09-06T10:25:15.876Z,97454.25
2022-09-06T10:28:10.857Z,97442.59
2022-09-06T10:31:16.296Z,97445.78
2022-09-06T10:33:46.012Z,97441.41
2022-09-06T10:36:17.325Z,97449.13
2022-09-06T10:39:00.381Z,97438.72
2022-09-06T10:42:01.995Z,97438.50
2022-09-06T10:45:02.334Z,97481.44
2022-09-06T10:47:38.803Z,97416.16
2022-09-06T10:50:06.164Z,97431.38
2022-09-06T10:52:43.355Z,97359.34
2022-09-06T10:55:14.274Z,97364.28
2022-09-06T10:58:20.668Z,97428.50
2022-09-06T11:00:49.978Z,97427.34
2022-09-06T11:06:11.139Z,97431.03
2022-09-06T11:08:47.950Z,97418.28
2022-09-06T11:11:28.790Z,97383.28
2022-09-06T11:13:55.399Z,97426.69
2022-09-06T11:16:39.261Z,97368.16
2022-09-06T11:19:21.591Z,97299.41
2022-09-06T11:22:10.058Z,97404.63
2022-09-06T11:24:46.651Z,97398.84
2022-09-06T11:27:26.383Z,97402.16
2022-09-06T11:29:57.620Z,97405.78
2022-09-06T11:32:48.905Z,97405.72
2022-09-06T11:35:26.130Z,97333.69
2022-09-06T11:38:07.232Z,97326.88
2022-09-06T11:40:43.535Z,97392.44
2022-09-06T11:43:34.830Z,97394.06
2022-09-06T11:46:01.530Z,97329.88
2022-09-06T11:48:34.677Z,97379.06
2022-09-06T11:51:03.099Z,97380.28
2022-09-06T11:53:50.048Z,97338.09
2022-09-06T11:56:39.635Z,97373.47
2022-09-06T11:59:24.492Z,97369.47
2022-09-06T12:02:28.508Z,97360.50
2022-09-06T12:05:01.323Z,97366.13
2022-09-06T12:07:30.291Z,97367.47
2022-09-06T12:09:57.447Z,97348.31
2022-09-06T12:12:46.479Z,97334.34
2022-09-06T12:15:43.912Z,97345.34
2022-09-06T12:18:30.586Z,97331.22
2022-09-06T12:20:57.146Z,97343.69
2022-09-06T12:23:36.368Z,97341.03
2022-09-06T12:26:07.443Z,97287.78
2022-09-06T12:28:49.869Z,97347.44
2022-09-06T12:31:25.027Z,97355.16
2022-09-06T12:33:54.802Z,97357.03
2022-09-06T12:36:29.789Z,97355.56
2022-09-06T12:39:09.901Z,97359.91
2022-09-06T12:41:43.752Z,97344.75
2022-09-06T12:44:13.243Z,97328.66
2022-09-06T12:46:47.225Z,97331.91
2022-09-06T12:49:17.688Z,97352.63
2022-09-06T12:51:44.656Z,97346.72
2022-09-06T12:54:28.635Z,97347.91
2022-09-06T12:57:12.894Z,97346.56
2022-09-06T12:59:57.085Z,97341.97
2022-09-06T13:02:37.765Z,97349.28
2022-09-06T13:05:08.374Z,97294.63
2022-09-06T13:07:40.465Z,97342.28
2022-09-06T13:10:08.889Z,97347.03
2022-09-06T13:12:39.593Z,97343.94
2022-09-06T13:15:32.536Z,97344.97
2022-09-06T13:18:22.151Z,97292.53
2022-09-06T13:21:07.548Z,97033.88
2022-09-06T13:23:42.557Z,97345.84
2022-09-06T13:26:09.279Z,97339.09
2022-09-06T13:28:36.277Z,97286.78
2022-09-06T13:31:18.321Z,97341.66
2022-09-06T13:33:46.633Z,97348.41
2022-09-06T13:36:33.859Z,97305.22
2022-09-06T13:39:03.683Z,97330.06
2022-09-06T13:41:30.277Z,97335.28
2022-09-06T13:44:07.916Z,97338.56
2022-09-06T13:46:38.377Z,97307.44
2022-09-06T13:49:05.759Z,97342.47
2022-09-06T13:51:32.453Z,97319.63
2022-09-06T13:54:07.844Z,97334.44
2022-09-06T13:56:35.405Z,97332.69
2022-09-06T13:59:02.729Z,97331.22
2022-09-06T14:01:29.648Z,97327.41
2022-09-06T14:03:56.590Z,97253.84
2022-09-06T14:06:23.696Z,97268.03
2022-09-06T14:09:06.441Z,97313.94
2022-09-06T14:11:34.440Z,97318.88
2022-09-06T14:14:01.110Z,97253.28
2022-09-06T14:16:27.798Z,97324.41
2022-09-06T14:18:54.533Z,97307.94
2022-09-06T14:21:21.292Z,97258.72
2022-09-06T14:23:51.057Z,97276.28
2022-09-06T14:26:19.005Z,97302.13
2022-09-06T14:28:45.779Z,97324.50
2022-09-06T14:31:17.888Z,97321.66
2022-09-06T14:33:44.752Z,97321.78
2022-09-06T14:36:14.359Z,97225.88
2022-09-06T14:38:42.282Z,97313.22
2022-09-06T14:41:09.710Z,97303.59
2022-09-06T14:43:37.119Z,97279.22
2022-09-06T14:46:12.682Z,97310.88
2022-09-06T14:48:42.310Z,97266.56
2022-09-06T14:51:20.860Z,97307.88
2022-09-06T14:53:49.853Z,97285.56
2022-09-06T14:56:16.629Z,97222.03
2022-09-06T14:58:44.004Z,97182.38
2022-09-06T15:01:14.968Z,97310.59
2022-09-06T15:03:44.114Z,97214.34
2022-09-06T15:06:11.300Z,97304.19
2022-09-06T15:08:38.368Z,97213.34
2022-09-06T15:11:08.238Z,97309.09
2022-09-06T15:13:38.979Z,97307.78
2022-09-06T15:16:09.408Z,97314.88
2022-09-06T15:18:36.600Z,97309.72
2022-09-06T15:21:12.173Z,97287.50
2022-09-06T15:23:39.763Z,97308.97
2022-09-06T15:26:08.529Z,97309.59
2022-09-06T15:28:37.193Z,97316.66
2022-09-06T15:31:05.693Z,97323.03
2022-09-06T15:33:34.372Z,97323.88
2022-09-06T15:36:06.147Z,97250.88
2022-09-06T15:38:37.198Z,97309.28
2022-09-06T15:41:09.340Z,97319.94
2022-09-06T15:43:38.676Z,97315.41
2022-09-06T15:46:05.538Z,97323.91
2022-09-06T15:48:47.274Z,97316.44
2022-09-06T15:51:16.654Z,97320.06
2022-09-06T15:53:44.320Z,97333.78
2022-09-06T15:56:14.468Z,97302.53
2022-09-06T15:58:41.584Z,97305.72
2022-09-06T16:01:17.440Z,97325.41
2022-09-06T16:03:55.795Z,97293.69
2022-09-06T16:08:55.660Z,97319.75
2022-09-06T16:11:22.376Z,97325.53
2022-09-06T16:13:49.522Z,97323.16
2022-09-06T16:16:17.110Z,97309.66
2022-09-06T16:18:47.173Z,97195.88
2022-09-06T16:21:13.775Z,97318.84
2022-09-06T16:23:41.977Z,97320.13
2022-09-06T16:26:10.168Z,97295.19
2022-09-06T16:28:37.734Z,97314.00
2022-09-06T16:31:07.763Z,97322.63
2022-09-06T16:33:36.541Z,97263.22
2022-09-06T16:36:06.336Z,97266.59
2022-09-06T16:38:33.488Z,97323.13
2022-09-06T16:41:02.211Z,97268.25
2022-09-06T16:43:29.196Z,97305.53
2022-09-06T16:46:00.249Z,97321.63
2022-09-06T16:48:28.193Z,97285.06
2022-09-06T16:50:55.212Z,97274.84
2022-09-06T16:53:23.712Z,97339.59
2022-09-06T16:55:51.218Z,97316.69
2022-09-06T16:58:17.890Z,97331.22
2022-09-06T17:00:45.454Z,97281.91
2022-09-06T17:03:15.478Z,97287.38
2022-09-06T17:05:42.218Z,97356.66
2022-09-06T17:08:10.002Z,97351.16
2022-09-06T17:10:39.818Z,97351.97
2022-09-06T17:13:07.127Z,97319.44
2022-09-06T17:15:53.749Z,97362.56
2022-09-06T17:18:22.330Z,97168.16
2022-09-06T17:21:01.016Z,97363.13
2022-09-06T17:23:28.048Z,97289.66
2022-09-06T17:25:54.732Z,97351.06
2022-09-06T17:28:22.035Z,97260.53
2022-09-06T17:30:49.297Z,97345.88
2022-09-06T17:33:17.670Z,97355.28
2022-09-06T17:35:45.662Z,97368.41
2022-09-06T17:38:14.072Z,97390.91
2022-09-06T17:40:40.723Z,97293.63
2022-09-06T17:43:07.451Z,97269.06
2022-09-06T17:45:44.926Z,97414.53
2022-09-06T17:48:11.622Z,97334.59
2022-09-06T17:50:40.120Z,97341.09
2022-09-06T17:53:06.837Z,97349.09
2022-09-06T17:55:33.475Z,97430.59
2022-09-06T17:58:00.198Z,97287.94
2022-09-06T18:00:26.877Z,97439.69
2022-09-06T18:02:54.353Z,97390.41
2022-09-06T18:05:21.230Z,97454.53
2022-09-06T18:07:48.089Z,97441.06
2022-09-06T18:10:15.227Z,97446.69
2022-09-06T18:12:42.690Z,97423.25
2022-09-06T18:15:10.333Z,97381.53
2022-09-06T18:17:36.988Z,97451.09
2022-09-06T18:20:05.248Z,97395.00
2022-09-06T18:22:33.050Z,97459.19
2022-09-06T18:24:59.768Z,97484.78
2022-09-06T18:27:26.509Z,97447.63
2022-09-06T18:29:53.426Z,97472.78
2022-09-06T18:32:20.336Z,97460.88
2022-09-06T18:34:47.214Z,97146.81
2022-09-06T18:37:14.580Z,97483.38
2022-09-06T18:39:42.488Z,97482.75
2022-09-06T18:42:11.497Z,97482.03
2022-09-06T18:44:38.286Z,97482.84
2022-09-06T18:47:08.042Z,97485.41
2022-09-06T18:49:38.503Z,97492.78
2022-09-06T18:52:07.732Z,97420.19
2022-09-06T18:54:35.284Z,97500.88
2022-09-06T18:57:02.162Z,97495.44
2022-09-06T18:59:29.198Z,96987.00
2022-09-06T19:01:56.487Z,97502.50
2022-09-06T19:04:23.786Z,97495.88
2022-09-06T19:06:52.970Z,97505.84
2022-09-06T19:09:19.992Z,97504.25
2022-09-06T19:11:51.609Z,97502.75
2022-09-06T19:14:18.824Z,97507.66
2022-09-06T19:16:48.044Z,97226.88
2022-09-06T19:19:15.130Z,97455.41
2022-09-06T19:21:42.775Z,97472.56
2022-09-06T19:24:11.805Z,97515.00
2022-09-06T19:26:41.952Z,97503.09
2022-09-06T19:29:16.036Z,97522.34
2022-09-06T19:31:43.944Z,97523.59
2022-09-06T19:34:12.462Z,97516.84
2022-09-06T19:36:39.524Z,97513.13
2022-09-06T19:39:13.352Z,97508.09
2022-09-06T19:41:45.040Z,97530.47
2022-09-06T19:44:12.352Z,97530.94
2022-09-06T19:46:44.867Z,97533.41
2022-09-06T19:49:13.028Z,97536.16
2022-09-06T19:51:39.869Z,97513.47
2022-09-06T19:54:06.553Z,97538.63
2022-09-06T19:56:34.813Z,97531.44
2022-09-06T19:59:04.711Z,97505.94
2022-09-06T20:01:33.635Z,97585.47
2022-09-06T20:04:02.911Z,97539.94
2022-09-06T20:06:30.394Z,97491.59
2022-09-06T20:08:58.630Z,97477.97
2022-09-06T20:11:28.100Z,97535.47
2022-09-06T20:13:54.997Z,97534.72
2022-09-06T20:16:22.336Z,97443.66
2022-09-06T20:18:49.168Z,97536.31
2022-09-06T20:21:18.456Z,97469.22
2022-09-06T20:23:50.530Z,97494.00
2022-09-06T20:26:18.401Z,97486.81
2022-09-06T20:28:46.123Z,97535.19
2022-09-06T20:31:18.131Z,97485.69
2022-09-06T20:33:49.383Z,97528.41
2022-09-06T20:36:17.360Z,97243.28
2022-09-06T20:38:45.274Z,97533.25
2022-09-06T20:41:17.235Z,97500.06
2022-09-06T20:43:44.353Z,97537.22
2022-09-06T20:46:12.294Z,97522.06
2022-09-06T20:48:44.247Z,97500.88
2022-09-06T20:51:20.011Z,97529.28
2022-09-06T20:53:50.812Z,97547.69
2022-09-06T20:56:20.248Z,97550.88
2022-09-06T20:58:52.537Z,97550.09
2022-09-06T21:01:22.553Z,97521.31
2022-09-06T21:03:51.710Z,97477.38
2022-09-06T21:06:19.393Z,97474.94
2022-09-06T21:08:46.708Z,97514.03
2022-09-06T21:11:13.495Z,97504.50
2022-09-06T21:13:40.382Z,97555.69
2022-09-06T21:16:07.560Z,97553.25
2022-09-06T21:18:35.200Z,97553.25
2022-09-06T21:21:07.083Z,97503.59
2022-09-06T21:23:39.016Z,97557.19
2022-09-06T21:26:07.982Z,97556.75
2022-09-06T21:28:39.989Z,97528.63
2022-09-06T21:31:14.963Z,97567.44
2022-09-06T21:33:44.262Z,97564.22
2022-09-06T21:36:13.807Z,97504.94
2022-09-06T21:38:43.156Z,97563.38
2022-09-06T21:41:11.090Z,97570.47
2022-09-06T21:43:37.878Z,97572.81
2022-09-06T21:46:08.085Z,97567.19
2022-09-06T21:48:38.666Z,97562.44
2022-09-06T21:51:10.248Z,97564.81
2022-09-06T21:53:37.624Z,97598.34
2022-09-06T21:56:05.414Z,97535.91
2022-09-06T21:58:32.894Z,97513.94
2022-09-06T22:01:01.171Z,97554.19
2022-09-06T22:03:30.598Z,97562.22
2022-09-06T22:05:57.955Z,97534.84
2022-09-06T22:08:25.356Z,97561.81
2022-09-06T22:10:52.372Z,97562.06
2022-09-06T22:13:20.476Z,97502.63
2022-09-06T22:15:47.399Z,97604.91
2022-09-06T22:18:14.153Z,97541.59
2022-09-06T22:20:40.839Z,97466.66
2022-09-06T22:23:08.508Z,97558.59
2022-09-06T22:25:35.225Z,97560.13
2022-09-06T22:28:02.056Z,97558.41
2022-09-06T22:30:28.737Z,97450.09
2022-09-06T22:32:55.452Z,97561.53
2022-09-06T22:35:22.300Z,97499.81
2022-09-06T22:37:49.195Z,97546.25
2022-09-06T22:40:15.983Z,97558.00
2022-09-06T22:42:43.449Z,97563.50
2022-09-06T22:45:10.415Z,97524.13
2022-09-06T22:47:37.070Z,97543.63
2022-09-06T22:50:03.997Z,97543.63
2022-09-06T22:52:30.632Z,97540.50
2022-09-06T22:54:57.283Z,97560.56
2022-09-06T22:57:23.968Z,97548.84
2022-09-06T22:59:50.653Z,97518.66
2022-09-06T23:02:17.316Z,97578.75
2022-09-06T23:04:44.042Z,97588.19
2022-09-06T23:07:11.004Z,97572.25
2022-09-06T23:09:37.684Z,97574.63
2022-09-06T23:12:05.165Z,97569.31
2022-09-06T23:14:31.885Z,97568.03
2022-09-06T23:16:58.535Z,97557.56
2022-09-06T23:19:25.193Z,97538.97
2022-09-06T23:21:51.949Z,97561.41
2022-09-06T23:24:18.609Z,97573.81
2022-09-06T23:26:45.343Z,97440.81
2022-09-06T23:29:12.854Z,97543.22
2022-09-06T23:31:39.646Z,97563.06
2022-09-06T23:34:06.498Z,97559.06
2022-09-06T23:36:33.296Z,97582.16
2022-09-06T23:39:01.841Z,97559.06
2022-09-06T23:41:29.115Z,97496.41
2022-09-06T23:43:55.853Z,97429.81
2022-09-06T23:46:22.529Z,97560.28
2022-09-06T23:48:49.371Z,97537.00
2022-09-06T23:51:16.127Z,97519.25
2022-09-06T23:53:42.987Z,97536.56
2022-09-06T23:56:10.131Z,97472.84
2022-09-06T23:58:37.812Z,97550.88
